sensor_id;sensor_type;location;lat;lon;timestamp;pressure;altitude;pressure_sealevel;temperature
68588;BMP180;55560;52.174;20.996;2023-05-14T01:03:46;101215.20;;;13.00
68588;BMP180;55560;52.174;20.996;2023-05-14T01:06:26;101212.40;;;13.00
68588;BMP180;55560;52.174;20.996;2023-05-14T01:17:06;101206.40;;;12.88
68588;BMP180;55560;52.174;20.996;2023-05-14T01:19:42;101206.40;;;12.80
68588;BMP180;55560;52.174;20.996;2023-05-14T01:22:11;101208.60;;;12.80
68588;BMP180;55560;52.174;20.996;2023-05-14T01:24:39;101203.20;;;12.80
68588;BMP180;55560;52.174;20.996;2023-05-14T01:27:30;101208.60;;;12.80
68588;BMP180;55560;52.174;20.996;2023-05-14T01:30:23;101200.00;;;12.70
68588;BMP180;55560;52.174;20.996;2023-05-14T01:32:55;101198.60;;;12.70
68588;BMP180;55560;52.174;20.996;2023-05-14T01:35:24;101198.40;;;12.62
68588;BMP180;55560;52.174;20.996;2023-05-14T01:37:58;101197.20;;;12.60
68588;BMP180;55560;52.174;20.996;2023-05-14T01:40:27;101190.40;;;12.58
68588;BMP180;55560;52.174;20.996;2023-05-14T01:42:55;101189.00;;;12.52
68588;BMP180;55560;52.174;20.996;2023-05-14T01:45:24;101190.20;;;12.50
68588;BMP180;55560;52.174;20.996;2023-05-14T01:47:52;101191.80;;;12.50
68588;BMP180;55560;52.174;20.996;2023-05-14T01:50:20;101189.60;;;12.50
68588;BMP180;55560;52.174;20.996;2023-05-14T01:52:48;101185.00;;;12.40
68588;BMP180;55560;52.174;20.996;2023-05-14T01:55:17;101188.80;;;12.40
68588;BMP180;55560;52.174;20.996;2023-05-14T01:57:45;101189.40;;;12.30
68588;BMP180;55560;52.174;20.996;2023-05-14T02:00:13;101192.60;;;12.30
68588;BMP180;55560;52.174;20.996;2023-05-14T02:02:41;101188.80;;;12.20
68588;BMP180;55560;52.174;20.996;2023-05-14T02:05:11;101186.80;;;12.20
68588;BMP180;55560;52.174;20.996;2023-05-14T02:07:39;101188.40;;;12.10
68588;BMP180;55560;52.174;20.996;2023-05-14T02:10:08;101190.80;;;12.10
68588;BMP180;55560;52.174;20.996;2023-05-14T02:12:37;101190.60;;;12.00
68588;BMP180;55560;52.174;20.996;2023-05-14T02:15:05;101194.00;;;12.00
68588;BMP180;55560;52.174;20.996;2023-05-14T02:17:35;101189.80;;;11.90
68588;BMP180;55560;52.174;20.996;2023-05-14T02:20:04;101188.20;;;11.90
68588;BMP180;55560;52.174;20.996;2023-05-14T02:22:31;101183.60;;;11.86
68588;BMP180;55560;52.174;20.996;2023-05-14T02:25:00;101184.00;;;11.80
68588;BMP180;55560;52.174;20.996;2023-05-14T02:27:27;101174.00;;;11.80
68588;BMP180;55560;52.174;20.996;2023-05-14T02:29:55;101171.60;;;11.70
68588;BMP180;55560;52.174;20.996;2023-05-14T02:32:27;101165.60;;;11.70
68588;BMP180;55560;52.174;20.996;2023-05-14T02:34:55;101167.40;;;11.64
68588;BMP180;55560;52.174;20.996;2023-05-14T02:37:23;101166.80;;;11.60
68588;BMP180;55560;52.174;20.996;2023-05-14T02:39:51;101167.40;;;11.62
68588;BMP180;55560;52.174;20.996;2023-05-14T02:42:22;101167.00;;;11.62
68588;BMP180;55560;52.174;20.996;2023-05-14T02:44:50;101165.40;;;11.60
68588;BMP180;55560;52.174;20.996;2023-05-14T02:47:18;101164.20;;;11.60
68588;BMP180;55560;52.174;20.996;2023-05-14T02:49:47;101165.00;;;11.60
68588;BMP180;55560;52.174;20.996;2023-05-14T02:52:15;101163.80;;;11.60
68588;BMP180;55560;52.174;20.996;2023-05-14T02:54:42;101165.40;;;11.50
68588;BMP180;55560;52.174;20.996;2023-05-14T02:57:10;101167.20;;;11.50
68588;BMP180;55560;52.174;20.996;2023-05-14T02:59:38;101175.00;;;11.50
68588;BMP180;55560;52.174;20.996;2023-05-14T03:02:06;101173.80;;;11.46
68588;BMP180;55560;52.174;20.996;2023-05-14T03:04:34;101172.40;;;11.40
68588;BMP180;55560;52.174;20.996;2023-05-14T03:07:02;101174.60;;;11.40
68588;BMP180;55560;52.174;20.996;2023-05-14T03:09:30;101177.00;;;11.40
68588;BMP180;55560;52.174;20.996;2023-05-14T03:11:58;101178.00;;;11.40
68588;BMP180;55560;52.174;20.996;2023-05-14T03:14:27;101176.60;;;11.30
68588;BMP180;55560;52.174;20.996;2023-05-14T03:16:54;101172.00;;;11.30
68588;BMP180;55560;52.174;20.996;2023-05-14T03:19:22;101173.40;;;11.30
68588;BMP180;55560;52.174;20.996;2023-05-14T03:21:50;101172.60;;;11.30
68588;BMP180;55560;52.174;20.996;2023-05-14T03:24:17;101172.80;;;11.30
68588;BMP180;55560;52.174;20.996;2023-05-14T03:26:45;101172.40;;;11.30
68588;BMP180;55560;52.174;20.996;2023-05-14T03:29:13;101167.00;;;11.30
68588;BMP180;55560;52.174;20.996;2023-05-14T03:31:44;101162.40;;;11.30
68588;BMP180;55560;52.174;20.996;2023-05-14T03:34:12;101166.80;;;11.38
68588;BMP180;55560;52.174;20.996;2023-05-14T03:36:40;101166.20;;;11.40
68588;BMP180;55560;52.174;20.996;2023-05-14T03:39:07;101162.60;;;11.38
68588;BMP180;55560;52.174;20.996;2023-05-14T03:41:36;101166.00;;;11.40
68588;BMP180;55560;52.174;20.996;2023-05-14T03:44:04;101165.80;;;11.40
68588;BMP180;55560;52.174;20.996;2023-05-14T03:46:32;101159.20;;;11.32
68588;BMP180;55560;52.174;20.996;2023-05-14T03:49:00;101160.60;;;11.32
68588;BMP180;55560;52.174;20.996;2023-05-14T03:51:28;101155.40;;;11.30
68588;BMP180;55560;52.174;20.996;2023-05-14T03:53:56;101155.00;;;11.30
68588;BMP180;55560;52.174;20.996;2023-05-14T03:56:27;101152.20;;;11.34
68588;BMP180;55560;52.174;20.996;2023-05-14T03:58:54;101151.00;;;11.40
68588;BMP180;55560;52.174;20.996;2023-05-14T04:01:22;101145.80;;;11.40
68588;BMP180;55560;52.174;20.996;2023-05-14T04:03:50;101145.00;;;11.40
68588;BMP180;55560;52.174;20.996;2023-05-14T04:06:18;101147.00;;;11.50
68588;BMP180;55560;52.174;20.996;2023-05-14T04:08:46;101144.20;;;11.50
68588;BMP180;55560;52.174;20.996;2023-05-14T04:11:14;101145.60;;;11.50
68588;BMP180;55560;52.174;20.996;2023-05-14T04:13:41;101143.00;;;11.60
68588;BMP180;55560;52.174;20.996;2023-05-14T04:16:10;101144.00;;;11.60
68588;BMP180;55560;52.174;20.996;2023-05-14T04:18:39;101145.80;;;11.70
68588;BMP180;55560;52.174;20.996;2023-05-14T04:21:07;101151.40;;;11.70
68588;BMP180;55560;52.174;20.996;2023-05-14T04:23:34;101147.00;;;11.80
68588;BMP180;55560;52.174;20.996;2023-05-14T04:26:02;101157.40;;;11.80
68588;BMP180;55560;52.174;20.996;2023-05-14T04:28:31;101149.60;;;11.90
68588;BMP180;55560;52.174;20.996;2023-05-14T04:30:59;101155.80;;;11.90
68588;BMP180;55560;52.174;20.996;2023-05-14T04:33:28;101155.40;;;12.00
68588;BMP180;55560;52.174;20.996;2023-05-14T04:35:55;101157.80;;;12.02
68588;BMP180;55560;52.174;20.996;2023-05-14T04:38:23;101152.60;;;12.10
68588;BMP180;55560;52.174;20.996;2023-05-14T04:40:51;101153.20;;;12.20
68588;BMP180;55560;52.174;20.996;2023-05-14T04:43:19;101154.40;;;12.22
68588;BMP180;55560;52.174;20.996;2023-05-14T04:45:47;101161.20;;;12.30
68588;BMP180;55560;52.174;20.996;2023-05-14T04:48:15;101156.40;;;12.40
68588;BMP180;55560;52.174;20.996;2023-05-14T04:50:42;101167.60;;;12.50
68588;BMP180;55560;52.174;20.996;2023-05-14T04:53:10;101169.00;;;12.60
68588;BMP180;55560;52.174;20.996;2023-05-14T04:55:38;101162.00;;;12.60
68588;BMP180;55560;52.174;20.996;2023-05-14T04:58:06;101160.40;;;12.70
68588;BMP180;55560;52.174;20.996;2023-05-14T05:00:33;101159.40;;;12.80
68588;BMP180;55560;52.174;20.996;2023-05-14T05:03:01;101160.00;;;12.90
68588;BMP180;55560;52.174;20.996;2023-05-14T05:05:30;101155.40;;;13.20
68588;BMP180;55560;52.174;20.996;2023-05-14T05:07:57;101148.80;;;13.76
68588;BMP180;55560;52.174;20.996;2023-05-14T05:10:25;101150.40;;;14.56
68588;BMP180;55560;52.174;20.996;2023-05-14T05:12:53;101155.80;;;15.30
68588;BMP180;55560;52.174;20.996;2023-05-14T05:15:21;101152.20;;;15.76
68588;BMP180;55560;52.174;20.996;2023-05-14T05:17:51;101151.20;;;16.60
68588;BMP180;55560;52.174;20.996;2023-05-14T05:20:19;101150.60;;;17.36
68588;BMP180;55560;52.174;20.996;2023-05-14T05:22:47;101159.00;;;17.70
68588;BMP180;55560;52.174;20.996;2023-05-14T05:25:15;101154.20;;;17.60
68588;BMP180;55560;52.174;20.996;2023-05-14T05:27:42;101151.20;;;17.26
68588;BMP180;55560;52.174;20.996;2023-05-14T05:30:11;101158.20;;;17.10
68588;BMP180;55560;52.174;20.996;2023-05-14T05:32:38;101154.60;;;16.90
68588;BMP180;55560;52.174;20.996;2023-05-14T05:35:07;101151.80;;;16.80
68588;BMP180;55560;52.174;20.996;2023-05-14T05:37:34;101151.80;;;17.40
68588;BMP180;55560;52.174;20.996;2023-05-14T05:40:03;101155.20;;;17.36
68588;BMP180;55560;52.174;20.996;2023-05-14T05:42:32;101154.00;;;17.20
68588;BMP180;55560;52.174;20.996;2023-05-14T05:44:59;101156.20;;;17.20
68588;BMP180;55560;52.174;20.996;2023-05-14T05:47:27;101155.80;;;17.20
68588;BMP180;55560;52.174;20.996;2023-05-14T05:49:55;101156.40;;;17.10
68588;BMP180;55560;52.174;20.996;2023-05-14T05:52:23;101155.60;;;17.10
68588;BMP180;55560;52.174;20.996;2023-05-14T05:54:51;101159.60;;;17.10
68588;BMP180;55560;52.174;20.996;2023-05-14T05:57:18;101159.00;;;17.10
68588;BMP180;55560;52.174;20.996;2023-05-14T05:59:48;101157.60;;;17.16
68588;BMP180;55560;52.174;20.996;2023-05-14T06:02:16;101148.20;;;17.46
68588;BMP180;55560;52.174;20.996;2023-05-14T06:04:43;101159.00;;;18.22
68588;BMP180;55560;52.174;20.996;2023-05-14T06:07:11;101156.60;;;18.74
68588;BMP180;55560;52.174;20.996;2023-05-14T06:09:39;101151.20;;;19.10
68588;BMP180;55560;52.174;20.996;2023-05-14T06:12:07;101155.80;;;19.60
68588;BMP180;55560;52.174;20.996;2023-05-14T06:14:35;101155.40;;;19.82
68588;BMP180;55560;52.174;20.996;2023-05-14T06:17:03;101159.40;;;20.70
68588;BMP180;55560;52.174;20.996;2023-05-14T06:19:31;101158.40;;;21.76
68588;BMP180;55560;52.174;20.996;2023-05-14T06:21:59;101159.20;;;22.86
68588;BMP180;55560;52.174;20.996;2023-05-14T06:24:26;101162.40;;;23.40
68588;BMP180;55560;52.174;20.996;2023-05-14T06:26:54;101158.60;;;23.68
68588;BMP180;55560;52.174;20.996;2023-05-14T06:29:22;101160.80;;;24.26
68588;BMP180;55560;52.174;20.996;2023-05-14T06:31:49;101167.40;;;24.60
68588;BMP180;55560;52.174;20.996;2023-05-14T06:34:17;101166.40;;;24.08
68588;BMP180;55560;52.174;20.996;2023-05-14T06:36:45;101162.80;;;23.44
68588;BMP180;55560;52.174;20.996;2023-05-14T06:39:12;101156.60;;;23.06
68588;BMP180;55560;52.174;20.996;2023-05-14T06:41:40;101159.00;;;22.58
68588;BMP180;55560;52.174;20.996;2023-05-14T06:44:09;101161.20;;;22.20
68588;BMP180;55560;52.174;20.996;2023-05-14T06:46:37;101158.00;;;21.90
68588;BMP180;55560;52.174;20.996;2023-05-14T06:49:05;101157.60;;;21.60
68588;BMP180;55560;52.174;20.996;2023-05-14T06:51:33;101156.40;;;21.30
68588;BMP180;55560;52.174;20.996;2023-05-14T06:54:01;101156.00;;;21.10
68588;BMP180;55560;52.174;20.996;2023-05-14T06:56:28;101159.20;;;20.90
68588;BMP180;55560;52.174;20.996;2023-05-14T06:58:56;101154.60;;;20.70
68588;BMP180;55560;52.174;20.996;2023-05-14T07:01:24;101151.40;;;20.60
68588;BMP180;55560;52.174;20.996;2023-05-14T07:03:52;101145.60;;;20.40
68588;BMP180;55560;52.174;20.996;2023-05-14T07:06:21;101141.80;;;20.30
68588;BMP180;55560;52.174;20.996;2023-05-14T07:08:49;101145.20;;;20.20
68588;BMP180;55560;52.174;20.996;2023-05-14T07:11:16;101145.80;;;20.10
68588;BMP180;55560;52.174;20.996;2023-05-14T07:13:44;101140.20;;;20.10
68588;BMP180;55560;52.174;20.996;2023-05-14T07:16:12;101141.80;;;20.10
68588;BMP180;55560;52.174;20.996;2023-05-14T07:18:40;101145.60;;;20.10
68588;BMP180;55560;52.174;20.996;2023-05-14T07:21:08;101145.20;;;20.10
68588;BMP180;55560;52.174;20.996;2023-05-14T07:23:35;101146.80;;;20.20
68588;BMP180;55560;52.174;20.996;2023-05-14T07:26:05;101143.40;;;20.20
68588;BMP180;55560;52.174;20.996;2023-05-14T07:28:33;101141.00;;;20.20
68588;BMP180;55560;52.174;20.996;2023-05-14T07:31:01;101140.60;;;20.20
68588;BMP180;55560;52.174;20.996;2023-05-14T07:33:31;101133.00;;;20.48
68588;BMP180;55560;52.174;20.996;2023-05-14T07:35:59;101135.40;;;21.26
68588;BMP180;55560;52.174;20.996;2023-05-14T07:38:27;101134.20;;;21.98
68588;BMP180;55560;52.174;20.996;2023-05-14T07:40:54;101138.40;;;22.62
68588;BMP180;55560;52.174;20.996;2023-05-14T07:43:22;101139.20;;;23.00
68588;BMP180;55560;52.174;20.996;2023-05-14T07:45:50;101138.00;;;22.80
68588;BMP180;55560;52.174;20.996;2023-05-14T07:48:18;101133.00;;;22.48
68588;BMP180;55560;52.174;20.996;2023-05-14T07:50:47;101133.80;;;22.10
68588;BMP180;55560;52.174;20.996;2023-05-14T07:53:15;101126.80;;;21.90
68588;BMP180;55560;52.174;20.996;2023-05-14T07:55:44;101125.60;;;21.70
68588;BMP180;55560;52.174;20.996;2023-05-14T07:58:14;101122.60;;;21.58
68588;BMP180;55560;52.174;20.996;2023-05-14T08:00:42;101120.60;;;21.40
68588;BMP180;55560;52.174;20.996;2023-05-14T08:03:10;101116.80;;;21.30
68588;BMP180;55560;52.174;20.996;2023-05-14T08:05:38;101121.20;;;21.10
68588;BMP180;55560;52.174;20.996;2023-05-14T08:08:06;101117.40;;;21.00
68588;BMP180;55560;52.174;20.996;2023-05-14T08:10:34;101105.40;;;20.90
68588;BMP180;55560;52.174;20.996;2023-05-14T08:13:02;101112.60;;;20.80
68588;BMP180;55560;52.174;20.996;2023-05-14T08:15:30;101104.80;;;20.80
68588;BMP180;55560;52.174;20.996;2023-05-14T08:17:58;101101.60;;;20.80
68588;BMP180;55560;52.174;20.996;2023-05-14T08:20:30;101098.40;;;20.90
68588;BMP180;55560;52.174;20.996;2023-05-14T08:22:57;101095.60;;;20.84
68588;BMP180;55560;52.174;20.996;2023-05-14T08:25:25;101092.80;;;20.80
68588;BMP180;55560;52.174;20.996;2023-05-14T08:27:53;101089.00;;;20.80
68588;BMP180;55560;52.174;20.996;2023-05-14T08:30:21;101084.20;;;20.80
68588;BMP180;55560;52.174;20.996;2023-05-14T08:32:50;101082.40;;;20.80
68588;BMP180;55560;52.174;20.996;2023-05-14T08:35:18;101079.20;;;20.90
68588;BMP180;55560;52.174;20.996;2023-05-14T08:37:46;101081.20;;;20.90
68588;BMP180;55560;52.174;20.996;2023-05-14T08:40:15;101083.60;;;21.00
68588;BMP180;55560;52.174;20.996;2023-05-14T08:42:43;101080.40;;;21.00
68588;BMP180;55560;52.174;20.996;2023-05-14T08:45:23;101075.20;;;21.04
68588;BMP180;55560;52.174;20.996;2023-05-14T08:47:55;101071.40;;;21.14
68588;BMP180;55560;52.174;20.996;2023-05-14T08:50:24;101069.60;;;21.20
68588;BMP180;55560;52.174;20.996;2023-05-14T08:52:52;101078.60;;;21.30
68588;BMP180;55560;52.174;20.996;2023-05-14T08:55:20;101073.00;;;21.34
68588;BMP180;55560;52.174;20.996;2023-05-14T08:57:49;101069.20;;;21.40
68588;BMP180;55560;52.174;20.996;2023-05-14T09:00:17;101067.00;;;21.36
68588;BMP180;55560;52.174;20.996;2023-05-14T09:02:45;101071.80;;;21.40
68588;BMP180;55560;52.174;20.996;2023-05-14T09:05:13;101067.40;;;21.40
68588;BMP180;55560;52.174;20.996;2023-05-14T09:07:41;101059.40;;;21.40
68588;BMP180;55560;52.174;20.996;2023-05-14T09:10:09;101059.00;;;21.40
68588;BMP180;55560;52.174;20.996;2023-05-14T09:12:37;101055.80;;;21.40
68588;BMP180;55560;52.174;20.996;2023-05-14T09:15:05;101059.40;;;21.50
68588;BMP180;55560;52.174;20.996;2023-05-14T09:17:33;101058.80;;;21.60
68588;BMP180;55560;52.174;20.996;2023-05-14T09:20:01;101056.60;;;21.60
68588;BMP180;55560;52.174;20.996;2023-05-14T09:22:30;101057.00;;;21.70
68588;BMP180;55560;52.174;20.996;2023-05-14T09:25:10;101056.80;;;21.80
68588;BMP180;55560;52.174;20.996;2023-05-14T09:27:41;101062.60;;;21.80
68588;BMP180;55560;52.174;20.996;2023-05-14T09:30:10;101059.60;;;21.80
68588;BMP180;55560;52.174;20.996;2023-05-14T09:32:41;101055.20;;;21.90
68588;BMP180;55560;52.174;20.996;2023-05-14T09:35:19;101051.80;;;21.90
68588;BMP180;55560;52.174;20.996;2023-05-14T09:37:52;101053.80;;;21.90
68588;BMP180;55560;52.174;20.996;2023-05-14T09:40:21;101045.00;;;21.98
68588;BMP180;55560;52.174;20.996;2023-05-14T09:42:51;101041.80;;;22.00
68588;BMP180;55560;52.174;20.996;2023-05-14T09:45:18;101043.40;;;22.00
68588;BMP180;55560;52.174;20.996;2023-05-14T09:47:46;101045.20;;;22.00
68588;BMP180;55560;52.174;20.996;2023-05-14T09:50:14;101043.00;;;22.00
68588;BMP180;55560;52.174;20.996;2023-05-14T09:52:42;101038.20;;;22.00
68588;BMP180;55560;52.174;20.996;2023-05-14T09:55:10;101043.60;;;22.10
68588;BMP180;55560;52.174;20.996;2023-05-14T09:57:38;101040.00;;;22.10
68588;BMP180;55560;52.174;20.996;2023-05-14T10:00:07;101037.60;;;22.20
68588;BMP180;55560;52.174;20.996;2023-05-14T10:02:36;101040.20;;;22.22
68588;BMP180;55560;52.174;20.996;2023-05-14T10:05:05;101034.00;;;22.30
68588;BMP180;55560;52.174;20.996;2023-05-14T10:07:45;101031.40;;;22.30
68588;BMP180;55560;52.174;20.996;2023-05-14T10:10:15;101026.00;;;22.40
68588;BMP180;55560;52.174;20.996;2023-05-14T10:12:49;101021.20;;;22.46
68588;BMP180;55560;52.174;20.996;2023-05-14T10:15:21;101020.80;;;22.50
68588;BMP180;55560;52.174;20.996;2023-05-14T10:17:54;101024.60;;;22.50
68588;BMP180;55560;52.174;20.996;2023-05-14T10:20:22;101025.20;;;22.60
68588;BMP180;55560;52.174;20.996;2023-05-14T10:22:52;101019.60;;;22.60
68588;BMP180;55560;52.174;20.996;2023-05-14T10:25:19;101016.20;;;22.66
68588;BMP180;55560;52.174;20.996;2023-05-14T10:27:47;101020.20;;;22.70
68588;BMP180;55560;52.174;20.996;2023-05-14T10:30:15;101019.80;;;22.70
68588;BMP180;55560;52.174;20.996;2023-05-14T10:32:47;101018.20;;;22.70
68588;BMP180;55560;52.174;20.996;2023-05-14T10:35:19;101018.60;;;22.70
68588;BMP180;55560;52.174;20.996;2023-05-14T10:37:50;101014.20;;;22.70
68588;BMP180;55560;52.174;20.996;2023-05-14T10:40:19;101013.20;;;22.70
68588;BMP180;55560;52.174;20.996;2023-05-14T10:42:50;101016.00;;;22.80
68588;BMP180;55560;52.174;20.996;2023-05-14T10:45:18;101002.00;;;22.80
68588;BMP180;55560;52.174;20.996;2023-05-14T10:47:46;100996.40;;;22.90
68588;BMP180;55560;52.174;20.996;2023-05-14T10:50:15;100992.40;;;23.00
68588;BMP180;55560;52.174;20.996;2023-05-14T10:52:44;100987.00;;;23.10
68588;BMP180;55560;52.174;20.996;2023-05-14T10:55:15;100984.20;;;23.22
68588;BMP180;55560;52.174;20.996;2023-05-14T10:57:44;100980.60;;;23.38
68588;BMP180;55560;52.174;20.996;2023-05-14T11:00:13;100977.60;;;23.40
68588;BMP180;55560;52.174;20.996;2023-05-14T11:02:42;100972.60;;;23.50
68588;BMP180;55560;52.174;20.996;2023-05-14T11:05:13;100970.00;;;23.50
68588;BMP180;55560;52.174;20.996;2023-05-14T11:07:44;100964.80;;;23.50
68588;BMP180;55560;52.174;20.996;2023-05-14T11:10:14;100963.60;;;23.50
68588;BMP180;55560;52.174;20.996;2023-05-14T11:12:44;100964.00;;;23.52
68588;BMP180;55560;52.174;20.996;2023-05-14T11:15:15;100950.80;;;23.58
68588;BMP180;55560;52.174;20.996;2023-05-14T11:17:44;100943.60;;;23.50
68588;BMP180;55560;52.174;20.996;2023-05-14T11:20:12;100942.80;;;23.50
68588;BMP180;55560;52.174;20.996;2023-05-14T11:22:41;100940.40;;;23.50
68588;BMP180;55560;52.174;20.996;2023-05-14T11:25:10;100935.00;;;23.60
68588;BMP180;55560;52.174;20.996;2023-05-14T11:27:42;100933.60;;;23.60
68588;BMP180;55560;52.174;20.996;2023-05-14T11:30:18;100940.20;;;23.60
68588;BMP180;55560;52.174;20.996;2023-05-14T11:32:47;100928.00;;;23.60
68588;BMP180;55560;52.174;20.996;2023-05-14T11:35:16;100922.00;;;23.54
68588;BMP180;55560;52.174;20.996;2023-05-14T11:37:50;100915.80;;;23.60
68588;BMP180;55560;52.174;20.996;2023-05-14T11:40:19;100915.60;;;23.62
68588;BMP180;55560;52.174;20.996;2023-05-14T11:42:50;100902.80;;;23.70
68588;BMP180;55560;52.174;20.996;2023-05-14T11:45:25;100907.60;;;23.70
68588;BMP180;55560;52.174;20.996;2023-05-14T11:47:53;100894.00;;;23.60
68588;BMP180;55560;52.174;20.996;2023-05-14T11:50:21;100884.80;;;23.70
